Time;durP1;ratioP1;P1;durP2;ratioP2;P2;SDS_P1;SDS_P2;PMS_P1;PMS_P2;Temp;Humidity;BMP_temperature;BMP_pressure;BME280_temperature;BME280_humidity;BME280_pressure;Samples;Min_cycle;Max_cycle;Signal;HPM_P1;HPM_P2
2023/12/02 00:00:26;;;;;;;0.90;0.90;;;0.10;99.90;;;;;;5056519;28;20187;-89
2023/12/02 00:02:52;;;;;;;1.00;1.00;;;0.10;99.90;;;;;;5036241;28;20180;-90
2023/12/02 00:05:17;;;;;;;0.90;0.90;;;0.20;99.90;;;;;;5043230;28;20206;-87
2023/12/02 00:07:43;;;;;;;0.90;0.90;;;0.30;99.90;;;;;;5034759;28;20191;-88
2023/12/02 00:10:10;;;;;;;0.90;0.90;;;0.20;99.90;;;;;;5033191;28;20180;-86
2023/12/02 00:12:36;;;;;;;0.80;0.80;;;0.20;99.90;;;;;;5033027;28;20267;-88
2023/12/02 00:15:02;;;;;;;0.90;0.90;;;0.20;99.90;;;;;;5032811;28;20270;-88
2023/12/02 00:17:27;;;;;;;0.90;0.90;;;0.20;99.90;;;;;;5033161;28;20187;-88
2023/12/02 00:19:53;;;;;;;0.90;0.90;;;0.30;99.90;;;;;;5032211;28;20572;-87
2023/12/02 00:22:19;;;;;;;0.87;0.87;;;0.20;99.90;;;;;;5033962;28;20206;-88
2023/12/02 00:24:45;;;;;;;0.90;0.90;;;0.30;99.90;;;;;;5047572;28;20190;-90
2023/12/02 00:27:10;;;;;;;0.90;0.90;;;0.20;99.90;;;;;;5056115;28;20211;-87
2023/12/02 00:29:36;;;;;;;0.90;0.90;;;0.20;99.90;;;;;;5055686;28;20287;-87
2023/12/02 00:32:02;;;;;;;1.00;1.00;;;0.10;99.90;;;;;;5052781;28;20194;-91
2023/12/02 00:34:27;;;;;;;0.90;0.90;;;0.20;99.90;;;;;;5033309;28;20187;-89
2023/12/02 00:36:53;;;;;;;0.80;0.80;;;0.20;99.90;;;;;;5044089;28;20188;-87
2023/12/02 00:39:19;;;;;;;0.90;0.90;;;0.20;99.90;;;;;;5057633;28;20186;-89
2023/12/02 00:41:44;;;;;;;0.80;0.80;;;0.30;99.90;;;;;;5056799;28;20247;-87
2023/12/02 00:44:10;;;;;;;0.87;0.87;;;0.20;99.90;;;;;;5023590;28;20271;-90
2023/12/02 00:46:35;;;;;;;0.90;0.90;;;0.10;99.90;;;;;;5011765;28;20208;-90
2023/12/02 00:49:01;;;;;;;0.90;0.90;;;0.20;99.90;;;;;;5052570;28;20199;-87
2023/12/02 00:51:28;;;;;;;0.90;0.90;;;0.10;99.90;;;;;;5045814;28;20311;-88
2023/12/02 00:53:53;;;;;;;1.00;1.00;;;0.10;99.90;;;;;;5051867;28;20618;-86
2023/12/02 00:56:19;;;;;;;0.93;0.93;;;0.10;99.90;;;;;;5047139;28;20653;-88
2023/12/02 00:58:44;;;;;;;0.90;0.90;;;0.10;99.90;;;;;;5052438;28;20575;-88
2023/12/02 01:01:10;;;;;;;0.80;0.80;;;0.10;99.90;;;;;;5051277;28;20175;-86
2023/12/02 01:03:35;;;;;;;0.90;0.90;;;0.10;99.90;;;;;;5052504;28;20182;-85
2023/12/02 01:06:01;;;;;;;0.83;0.83;;;0.10;99.90;;;;;;5065047;28;20258;-86
2023/12/02 01:08:26;;;;;;;0.90;0.90;;;0.10;99.90;;;;;;5068781;28;20263;-86
2023/12/02 01:10:52;;;;;;;0.90;0.90;;;0.20;99.90;;;;;;5073871;28;20225;-89
2023/12/02 01:13:18;;;;;;;0.90;0.90;;;0.10;99.90;;;;;;5077270;28;20178;-87
2023/12/02 01:15:43;;;;;;;0.90;0.90;;;0.10;99.90;;;;;;5061822;28;20199;-88
2023/12/02 01:18:09;;;;;;;1.00;1.00;;;0.10;99.90;;;;;;5034281;28;20233;-87
2023/12/02 01:20:34;;;;;;;0.90;0.90;;;0.00;99.90;;;;;;5035452;28;20545;-90
2023/12/02 01:23:00;;;;;;;0.90;0.90;;;0.10;99.90;;;;;;5043896;28;20221;-88
2023/12/02 01:25:25;;;;;;;0.80;0.80;;;0.10;99.90;;;;;;5055064;28;20271;-86
2023/12/02 01:27:51;;;;;;;0.80;0.80;;;0.00;99.90;;;;;;5066324;28;20175;-88
2023/12/02 01:30:17;;;;;;;0.90;0.90;;;0.00;99.90;;;;;;5059177;28;20267;-90
2023/12/02 01:32:42;;;;;;;0.80;0.80;;;0.00;99.90;;;;;;5041352;28;20243;-87
2023/12/02 01:35:08;;;;;;;0.90;0.90;;;0.00;99.90;;;;;;5042108;28;20187;-88
2023/12/02 01:37:33;;;;;;;1.00;1.00;;;0.00;99.90;;;;;;5044142;28;20176;-89
2023/12/02 01:39:59;;;;;;;0.93;0.93;;;-0.10;99.90;;;;;;5040840;28;20179;-85
2023/12/02 01:42:24;;;;;;;0.90;0.90;;;-0.10;99.90;;;;;;5059681;28;20238;-85
2023/12/02 01:44:50;;;;;;;0.90;0.90;;;-0.10;99.90;;;;;;5059277;28;20186;-89
2023/12/02 01:47:16;;;;;;;0.90;0.90;;;-0.20;99.90;;;;;;5038428;28;20676;-89
2023/12/02 01:49:43;;;;;;;0.90;0.90;;;-0.20;99.90;;;;;;5037239;28;20211;-89
2023/12/02 01:52:09;;;;;;;0.70;0.70;;;-0.10;99.90;;;;;;5056287;28;20206;-87
2023/12/02 01:54:36;;;;;;;0.80;0.80;;;-0.10;99.90;;;;;;5056624;28;20175;-90
2023/12/02 01:57:02;;;;;;;0.90;0.90;;;-0.10;99.90;;;;;;5039596;28;20196;-88
2023/12/02 01:59:28;;;;;;;0.90;0.90;;;-0.20;99.90;;;;;;5036514;28;20176;-88
2023/12/02 02:01:54;;;;;;;0.87;0.87;;;-0.10;99.90;;;;;;5036693;28;20254;-87
2023/12/02 02:04:20;;;;;;;0.90;0.90;;;-0.10;99.90;;;;;;5036187;28;20168;-85
2023/12/02 02:06:46;;;;;;;0.80;0.80;;;-0.20;99.90;;;;;;5037955;28;20314;-85
2023/12/02 02:09:11;;;;;;;0.90;0.90;;;-0.20;99.90;;;;;;5038612;28;20235;-88
2023/12/02 02:11:37;;;;;;;1.00;1.00;;;-0.20;99.90;;;;;;5074892;28;20163;-85
2023/12/02 02:14:02;;;;;;;1.00;1.00;;;-0.10;99.90;;;;;;5058348;28;20190;-85
2023/12/02 02:16:28;;;;;;;0.90;0.90;;;-0.10;99.90;;;;;;5055811;28;20203;-87
2023/12/02 02:18:53;;;;;;;0.87;0.87;;;-0.20;99.90;;;;;;5056723;28;20190;-89
2023/12/02 02:21:22;;;;;;;0.87;0.87;;;-0.10;99.90;;;;;;5048311;28;20172;-87
2023/12/02 02:23:48;;;;;;;0.90;0.90;;;-0.20;99.90;;;;;;5036028;28;20198;-86
2023/12/02 02:26:14;;;;;;;0.87;0.87;;;-0.20;99.90;;;;;;5036423;28;20204;-87
2023/12/02 02:28:39;;;;;;;0.90;0.90;;;-0.20;99.90;;;;;;5038481;28;20208;-85
2023/12/02 02:31:05;;;;;;;0.90;0.90;;;-0.20;99.90;;;;;;5038260;28;20637;-86
2023/12/02 02:33:34;;;;;;;1.00;1.00;;;-0.20;99.90;;;;;;5052762;28;20191;-84
2023/12/02 02:36:00;;;;;;;0.90;0.90;;;-0.20;99.90;;;;;;5059296;28;20180;-86
2023/12/02 02:38:25;;;;;;;0.80;0.80;;;-0.20;99.90;;;;;;5059700;28;20187;-87
2023/12/02 02:40:51;;;;;;;0.90;0.90;;;-0.20;99.90;;;;;;5060161;28;20175;-86
2023/12/02 02:43:16;;;;;;;0.90;0.90;;;-0.20;99.90;;;;;;5079085;28;20171;-85
2023/12/02 02:45:42;;;;;;;0.90;0.90;;;-0.30;99.90;;;;;;5078979;28;20254;-86
2023/12/02 02:48:08;;;;;;;1.00;1.00;;;-0.30;99.90;;;;;;5072157;28;20207;-87
2023/12/02 02:50:34;;;;;;;0.90;0.90;;;-0.30;99.90;;;;;;5057653;28;20217;-86
2023/12/02 02:52:59;;;;;;;0.90;0.90;;;-0.30;99.90;;;;;;5040621;28;20259;-88
2023/12/02 02:55:25;;;;;;;0.80;0.80;;;-0.20;99.90;;;;;;5036641;28;20214;-86
2023/12/02 02:57:51;;;;;;;1.00;1.00;;;-0.30;99.90;;;;;;5035796;28;20654;-87
2023/12/02 03:00:18;;;;;;;0.80;0.80;;;-0.20;99.90;;;;;;5035657;28;20211;-87
2023/12/02 03:02:44;;;;;;;0.80;0.80;;;-0.30;99.90;;;;;;5036241;28;20600;-86
2023/12/02 03:05:09;;;;;;;0.90;0.90;;;-0.30;99.90;;;;;;5035917;28;20176;-87
2023/12/02 03:07:35;;;;;;;0.90;0.90;;;-0.30;99.90;;;;;;5035850;28;20179;-85
2023/12/02 03:10:01;;;;;;;0.80;0.80;;;-0.40;99.90;;;;;;5036440;28;20203;-87
2023/12/02 03:12:26;;;;;;;0.90;0.90;;;-0.30;99.90;;;;;;5037336;28;20198;-85
2023/12/02 03:14:53;;;;;;;0.90;0.90;;;-0.30;99.90;;;;;;5037697;28;20250;-86
2023/12/02 03:17:18;;;;;;;0.90;0.90;;;-0.30;99.90;;;;;;5050087;28;20194;-86
2023/12/02 03:19:48;;;;;;;1.00;1.00;;;-0.30;99.90;;;;;;5058923;28;20203;-86
2023/12/02 03:22:13;;;;;;;0.90;0.90;;;-0.40;99.90;;;;;;5058521;28;20198;-86
2023/12/02 03:24:39;;;;;;;0.90;0.90;;;-0.30;99.90;;;;;;5058356;28;20164;-82
2023/12/02 03:27:05;;;;;;;0.90;0.90;;;-0.30;99.90;;;;;;5057807;28;20195;-83
2023/12/02 03:29:30;;;;;;;0.90;0.90;;;-0.30;99.90;;;;;;5058046;28;20219;-85
2023/12/02 03:31:56;;;;;;;0.83;0.83;;;-0.30;99.90;;;;;;5058840;28;20175;-86
2023/12/02 03:34:21;;;;;;;0.80;0.80;;;-0.30;99.90;;;;;;5059078;28;20191;-84
2023/12/02 03:36:47;;;;;;;0.90;0.90;;;-0.20;99.90;;;;;;5059239;28;20187;-84
2023/12/02 03:39:13;;;;;;;0.80;0.80;;;-0.20;99.90;;;;;;5059443;28;20174;-85
2023/12/02 03:41:42;;;;;;;0.83;0.83;;;-0.30;99.90;;;;;;5059396;28;20167;-85
2023/12/02 03:44:08;;;;;;;0.90;0.90;;;-0.30;99.90;;;;;;5059182;28;20172;-84
2023/12/02 03:46:36;;;;;;;0.80;0.80;;;-0.20;99.90;;;;;;5058479;28;20188;-87
2023/12/02 03:49:02;;;;;;;0.90;0.90;;;-0.30;99.90;;;;;;5046788;28;20204;-88
2023/12/02 03:51:28;;;;;;;0.90;0.90;;;-0.30;99.90;;;;;;5033547;28;20184;-87
2023/12/02 03:53:53;;;;;;;0.90;0.90;;;-0.40;99.90;;;;;;5033697;28;20183;-87
2023/12/02 03:56:20;;;;;;;0.80;0.80;;;-0.30;99.90;;;;;;5033049;28;20203;-85
2023/12/02 03:58:46;;;;;;;1.00;1.00;;;-0.40;99.90;;;;;;5034354;28;20267;-87
2023/12/02 04:01:12;;;;;;;0.90;0.90;;;-0.40;99.90;;;;;;5034390;28;20203;-89
2023/12/02 04:03:38;;;;;;;0.90;0.90;;;-0.40;99.90;;;;;;5033776;28;20207;-89
2023/12/02 04:06:05;;;;;;;0.90;0.90;;;-0.40;99.90;;;;;;5040174;28;20217;-86
2023/12/02 04:08:32;;;;;;;1.00;1.00;;;-0.40;99.90;;;;;;5040065;28;20211;-88
2023/12/02 04:10:58;;;;;;;0.90;0.90;;;-0.30;99.90;;;;;;5033927;28;20182;-84
2023/12/02 04:13:25;;;;;;;0.90;0.90;;;-0.40;99.90;;;;;;5034402;28;20211;-86
2023/12/02 04:15:50;;;;;;;0.90;0.90;;;-0.40;99.90;;;;;;5040630;28;20204;-87
2023/12/02 04:18:16;;;;;;;1.00;1.00;;;-0.40;99.90;;;;;;5040072;28;20279;-89
2023/12/02 04:20:43;;;;;;;1.00;1.00;;;-0.40;99.90;;;;;;5033402;28;20183;-86
2023/12/02 04:23:09;;;;;;;0.80;0.80;;;-0.40;99.90;;;;;;5032791;28;20731;-86
2023/12/02 04:25:36;;;;;;;0.90;0.90;;;-0.40;99.90;;;;;;5031911;28;20277;-85
2023/12/02 04:28:01;;;;;;;0.90;0.90;;;-0.30;99.90;;;;;;5033323;28;20684;-89
2023/12/02 04:30:27;;;;;;;0.93;0.93;;;-0.30;99.90;;;;;;5033324;28;20172;-85
2023/12/02 04:32:53;;;;;;;0.90;0.90;;;-0.30;99.90;;;;;;5033254;28;20592;-86
2023/12/02 04:35:19;;;;;;;0.90;0.90;;;-0.30;99.90;;;;;;5034149;28;20241;-85
2023/12/02 04:37:45;;;;;;;0.93;0.93;;;-0.50;99.90;;;;;;5031982;28;20271;-85
2023/12/02 04:40:11;;;;;;;0.80;0.80;;;-0.40;99.90;;;;;;5034617;28;20195;-87
2023/12/02 04:42:39;;;;;;;1.00;1.00;;;-0.40;99.90;;;;;;5056281;28;20199;-86
2023/12/02 04:45:07;;;;;;;0.90;0.90;;;-0.50;99.90;;;;;;5054388;28;20175;-85
2023/12/02 04:47:38;;;;;;;0.90;0.90;;;-0.50;99.90;;;;;;5057434;28;20175;-84
2023/12/02 04:50:05;;;;;;;0.90;0.90;;;-0.50;99.90;;;;;;5055898;28;20283;-86
2023/12/02 04:52:31;;;;;;;0.90;0.90;;;-0.40;99.90;;;;;;5056016;28;20187;-85
2023/12/02 04:54:58;;;;;;;0.90;0.90;;;-0.50;99.90;;;;;;5056964;28;20171;-83
2023/12/02 04:57:25;;;;;;;0.80;0.80;;;-0.50;99.90;;;;;;5042246;28;20697;-84
2023/12/02 04:59:51;;;;;;;0.90;0.90;;;-0.50;99.90;;;;;;5053678;28;20187;-86
2023/12/02 05:02:20;;;;;;;0.80;0.80;;;-0.60;99.90;;;;;;5037553;28;20180;-86
2023/12/02 05:04:46;;;;;;;0.80;0.80;;;-0.60;99.90;;;;;;5038258;28;20602;-87
2023/12/02 05:07:12;;;;;;;0.90;0.90;;;-0.60;99.90;;;;;;5037163;28;20196;-85
2023/12/02 05:09:38;;;;;;;1.00;1.00;;;-0.60;99.90;;;;;;5037962;28;20208;-87
2023/12/02 05:12:06;;;;;;;0.80;0.80;;;-0.60;99.90;;;;;;5037233;28;20634;-86
2023/12/02 05:14:32;;;;;;;0.90;0.90;;;-0.50;99.90;;;;;;5037599;28;20176;-85
2023/12/02 05:16:57;;;;;;;0.90;0.90;;;-0.60;99.90;;;;;;5036808;28;20218;-86
2023/12/02 05:19:23;;;;;;;0.90;0.90;;;-0.70;99.90;;;;;;5036099;28;20172;-87
2023/12/02 05:21:49;;;;;;;1.00;1.00;;;-0.60;99.90;;;;;;5035636;28;20168;-86
2023/12/02 05:24:17;;;;;;;0.90;0.90;;;-0.70;99.90;;;;;;5035930;28;20179;-88
2023/12/02 05:26:43;;;;;;;0.83;0.83;;;-0.70;99.90;;;;;;5035409;28;20680;-86
2023/12/02 05:29:09;;;;;;;0.87;0.87;;;-0.70;99.90;;;;;;5037240;28;20211;-88
2023/12/02 05:31:37;;;;;;;0.90;0.90;;;-0.70;99.90;;;;;;5034975;28;20599;-86
2023/12/02 05:34:03;;;;;;;0.90;0.90;;;-0.70;99.90;;;;;;5036137;28;20266;-87
2023/12/02 05:36:29;;;;;;;0.87;0.87;;;-0.70;99.90;;;;;;5037301;28;20230;-85
2023/12/02 05:38:54;;;;;;;0.90;0.90;;;-0.80;99.90;;;;;;5036268;28;20179;-87
2023/12/02 05:41:21;;;;;;;0.90;0.90;;;-0.80;99.90;;;;;;5037902;28;20206;-89
2023/12/02 05:43:46;;;;;;;0.90;0.90;;;-0.80;99.90;;;;;;5036720;28;20532;-86
2023/12/02 05:46:17;;;;;;;0.90;0.90;;;-0.70;99.90;;;;;;5035659;28;20203;-86
2023/12/02 05:48:46;;;;;;;1.00;1.00;;;-0.80;99.90;;;;;;5037034;28;20203;-87
2023/12/02 05:51:13;;;;;;;1.00;1.00;;;-0.80;99.90;;;;;;5037902;28;20541;-87
2023/12/02 05:53:39;;;;;;;0.80;0.80;;;-0.90;99.90;;;;;;5036180;28;20199;-86
2023/12/02 05:56:06;;;;;;;1.00;1.00;;;-1.00;99.90;;;;;;5036963;28;20204;-86
2023/12/02 05:58:32;;;;;;;1.00;1.00;;;-1.00;99.90;;;;;;5035239;28;20172;-88
2023/12/02 06:00:57;;;;;;;1.00;1.00;;;-0.90;99.90;;;;;;5038054;28;20529;-87
2023/12/02 06:03:24;;;;;;;0.80;0.80;;;-0.90;99.90;;;;;;5036658;28;20638;-89
2023/12/02 06:05:50;;;;;;;0.90;0.90;;;-0.90;99.90;;;;;;5036881;28;20302;-86
2023/12/02 06:08:15;;;;;;;0.90;0.90;;;-0.90;99.90;;;;;;5057086;28;20187;-86
2023/12/02 06:10:41;;;;;;;1.00;1.00;;;-1.00;99.90;;;;;;5055298;28;20164;-85
2023/12/02 06:13:07;;;;;;;0.93;0.93;;;-0.90;99.90;;;;;;5056467;28;20251;-86
2023/12/02 06:15:32;;;;;;;1.00;1.00;;;-1.00;99.90;;;;;;5036838;28;20203;-87
2023/12/02 06:17:58;;;;;;;0.90;0.90;;;-1.00;99.90;;;;;;5036799;28;20244;-90
2023/12/02 06:20:26;;;;;;;1.00;1.00;;;-1.00;99.90;;;;;;5037035;28;20179;-87
2023/12/02 06:22:53;;;;;;;0.90;0.90;;;-1.00;99.90;;;;;;5037446;28;20191;-87
2023/12/02 06:25:19;;;;;;;0.80;0.80;;;-1.00;99.90;;;;;;5035967;28;20655;-88
2023/12/02 06:27:45;;;;;;;0.90;0.90;;;-1.00;99.90;;;;;;5039385;28;20318;-86
2023/12/02 06:30:12;;;;;;;0.90;0.90;;;-1.00;99.90;;;;;;5041244;28;20669;-89
2023/12/02 06:32:37;;;;;;;0.90;0.90;;;-1.00;99.90;;;;;;5036548;28;20180;-89
2023/12/02 06:35:04;;;;;;;1.00;1.00;;;-1.00;99.90;;;;;;5037750;28;20653;-86
2023/12/02 06:37:29;;;;;;;0.90;0.90;;;-1.10;99.90;;;;;;5038590;28;20184;-88
2023/12/02 06:39:55;;;;;;;0.80;0.80;;;-1.10;99.90;;;;;;5036208;28;20176;-89
2023/12/02 06:42:21;;;;;;;0.80;0.80;;;-1.10;99.90;;;;;;5038872;28;20180;-86
2023/12/02 06:44:46;;;;;;;0.90;0.90;;;-1.10;99.90;;;;;;5047667;28;20178;-86
2023/12/02 06:47:13;;;;;;;1.00;1.00;;;-1.20;99.90;;;;;;5058638;28;20187;-82
2023/12/02 06:49:38;;;;;;;0.83;0.83;;;-1.10;99.90;;;;;;5058701;28;20247;-81
2023/12/02 06:52:04;;;;;;;0.97;0.97;;;-1.10;99.90;;;;;;5058540;28;20160;-79
2023/12/02 06:54:34;;;;;;;0.90;0.90;;;-0.90;99.90;;;;;;5045279;28;20187;-83
2023/12/02 06:57:00;;;;;;;0.90;0.90;;;-1.00;99.90;;;;;;5037581;28;20669;-83
2023/12/02 06:59:25;;;;;;;0.90;0.90;;;-1.00;99.90;;;;;;5037306;28;20191;-82
2023/12/02 07:01:51;;;;;;;0.80;0.80;;;-1.10;99.90;;;;;;5037950;28;20175;-84
2023/12/02 07:04:17;;;;;;;1.00;1.00;;;-1.00;99.90;;;;;;5036779;28;20183;-84
2023/12/02 07:06:43;;;;;;;0.90;0.90;;;-1.10;99.90;;;;;;5037024;28;20225;-82
2023/12/02 07:09:11;;;;;;;0.90;0.90;;;-1.10;99.90;;;;;;5033417;28;20196;-84
2023/12/02 07:11:37;;;;;;;0.90;0.90;;;-1.00;99.90;;;;;;5036997;28;20645;-83
2023/12/02 07:14:05;;;;;;;0.90;0.90;;;-1.10;99.90;;;;;;5036835;28;20176;-82
2023/12/02 07:16:31;;;;;;;0.90;0.90;;;-1.10;99.90;;;;;;5035536;28;20278;-84
2023/12/02 07:18:57;;;;;;;1.00;1.00;;;-1.10;99.90;;;;;;5037188;28;20708;-84
2023/12/02 07:21:22;;;;;;;1.00;1.00;;;-0.80;99.90;;;;;;5037024;28;20653;-83
2023/12/02 07:23:49;;;;;;;0.90;0.90;;;-1.00;99.90;;;;;;5035971;28;20183;-85
2023/12/02 07:26:16;;;;;;;0.90;0.90;;;-1.10;99.90;;;;;;5037757;28;20776;-85
2023/12/02 07:28:42;;;;;;;0.93;0.93;;;-1.00;99.90;;;;;;5054106;28;20176;-81
2023/12/02 07:31:15;;;;;;;0.93;0.93;;;-1.20;99.90;;;;;;5051266;28;20172;-85
2023/12/02 07:33:41;;;;;;;0.90;0.90;;;-1.10;99.90;;;;;;5050636;28;20176;-84
2023/12/02 07:36:07;;;;;;;1.00;1.00;;;-0.70;99.90;;;;;;5052012;28;20331;-85
2023/12/02 07:38:33;;;;;;;1.00;1.00;;;-1.00;99.90;;;;;;5043248;28;20179;-86
2023/12/02 07:40:59;;;;;;;0.90;0.90;;;-0.80;99.90;;;;;;5050414;28;20238;-84
2023/12/02 07:43:24;;;;;;;1.00;1.00;;;-1.10;99.90;;;;;;5049149;28;20267;-85
2023/12/02 07:45:50;;;;;;;1.03;1.03;;;-1.10;99.90;;;;;;5046629;28;20208;-86
2023/12/02 07:48:16;;;;;;;0.90;0.90;;;-1.20;99.90;;;;;;5043369;28;20289;-84
2023/12/02 07:50:42;;;;;;;0.90;0.90;;;-1.20;99.90;;;;;;5042934;28;20194;-86
2023/12/02 07:53:08;;;;;;;0.90;0.90;;;-1.30;99.90;;;;;;5042180;28;20237;-83
2023/12/02 07:55:33;;;;;;;0.80;0.80;;;-1.30;99.90;;;;;;5040249;28;20681;-85
2023/12/02 07:57:59;;;;;;;0.83;0.83;;;-1.30;99.90;;;;;;5040170;28;20183;-83
2023/12/02 08:00:25;;;;;;;0.90;0.90;;;-1.30;99.90;;;;;;5039645;28;20234;-86
2023/12/02 08:02:51;;;;;;;1.00;1.00;;;-1.20;99.90;;;;;;5040008;28;20168;-85
2023/12/02 08:05:17;;;;;;;0.90;0.90;;;-1.20;99.90;;;;;;5039230;28;20175;-83
2023/12/02 08:07:42;;;;;;;0.90;0.90;;;-1.30;99.90;;;;;;5041759;28;20183;-84
2023/12/02 08:10:10;;;;;;;0.80;0.80;;;-1.40;99.90;;;;;;5045543;28;20275;-84
2023/12/02 08:12:37;;;;;;;0.90;0.90;;;-1.20;99.90;;;;;;5043294;28;20184;-86
2023/12/02 08:15:03;;;;;;;1.00;1.00;;;-1.40;99.90;;;;;;5045725;28;20279;-85
2023/12/02 08:17:29;;;;;;;0.90;0.90;;;-1.40;99.90;;;;;;5041639;28;20236;-85
2023/12/02 08:19:55;;;;;;;0.90;0.90;;;-1.20;99.90;;;;;;5042323;28;20188;-82
2023/12/02 08:22:24;;;;;;;0.90;0.90;;;-1.30;99.90;;;;;;5040869;28;20653;-83
2023/12/02 08:24:50;;;;;;;0.97;0.97;;;-1.30;99.90;;;;;;5039882;28;20184;-83
2023/12/02 08:27:21;;;;;;;0.80;0.80;;;-1.40;99.90;;;;;;5039954;28;20202;-84
2023/12/02 08:29:47;;;;;;;0.97;0.97;;;-1.40;99.90;;;;;;5043087;28;20397;-84
2023/12/02 08:32:13;;;;;;;0.80;0.80;;;-1.30;99.90;;;;;;5045450;28;20175;-80
2023/12/02 08:34:39;;;;;;;0.80;0.80;;;-1.30;99.90;;;;;;5056757;28;20160;-81
2023/12/02 08:39:46;;;;;;;1.00;1.00;;;-1.20;99.90;;;;;;5059874;28;20194;-80
2023/12/02 08:42:15;;;;;;;0.90;0.90;;;-1.40;99.90;;;;;;5056726;28;20175;-80
2023/12/02 08:44:41;;;;;;;0.80;0.80;;;-1.40;99.90;;;;;;5053408;28;20195;-83
2023/12/02 08:47:07;;;;;;;0.90;0.90;;;-1.40;99.90;;;;;;5050323;28;20203;-83
2023/12/02 08:49:33;;;;;;;0.90;0.90;;;-1.40;99.90;;;;;;5051248;28;20192;-84
2023/12/02 08:51:58;;;;;;;0.90;0.90;;;-1.40;99.90;;;;;;5047025;28;20198;-83
2023/12/02 08:54:24;;;;;;;0.87;0.87;;;-1.40;99.90;;;;;;5047467;28;20188;-85
2023/12/02 08:56:49;;;;;;;0.90;0.90;;;-1.40;99.90;;;;;;5026296;28;20207;-85
2023/12/02 08:59:16;;;;;;;0.90;0.90;;;-1.50;99.90;;;;;;5038893;28;20171;-82
2023/12/02 09:01:42;;;;;;;0.80;0.80;;;-1.50;99.90;;;;;;5039887;28;20172;-84
2023/12/02 09:04:08;;;;;;;0.90;0.90;;;-1.50;99.90;;;;;;5038896;28;20187;-84
2023/12/02 09:06:33;;;;;;;0.90;0.90;;;-1.60;99.90;;;;;;5040890;28;20204;-83
2023/12/02 09:08:59;;;;;;;0.90;0.90;;;-1.60;99.90;;;;;;5037093;28;20211;-84
2023/12/02 09:11:24;;;;;;;0.87;0.87;;;-1.60;99.90;;;;;;5055644;28;20239;-85
2023/12/02 09:13:50;;;;;;;0.83;0.83;;;-1.50;99.90;;;;;;5063901;28;20180;-82
2023/12/02 09:16:25;;;;;;;0.90;0.90;;;-1.50;99.90;;;;;;5047903;28;20204;-81
2023/12/02 09:18:50;;;;;;;0.90;0.90;;;-1.40;99.90;;;;;;5057555;28;20172;-83
2023/12/02 09:21:43;;;;;;;0.90;0.90;;;-1.50;99.90;;;;;;5066856;28;20175;-84
2023/12/02 09:24:31;;;;;;;0.90;0.90;;;-1.40;99.90;;;;;;5058523;28;20190;-86
2023/12/02 09:26:57;;;;;;;0.93;0.93;;;-1.30;99.90;;;;;;5060888;28;20191;-87
2023/12/02 09:29:34;;;;;;;0.70;0.70;;;-1.20;99.90;;;;;;5053035;28;20525;-86
2023/12/02 09:32:19;;;;;;;0.90;0.90;;;-1.10;99.90;;;;;;5041758;28;20624;-84
2023/12/02 09:34:57;;;;;;;0.90;0.90;;;-1.00;99.90;;;;;;5061816;28;20258;-86
2023/12/02 09:37:51;;;;;;;0.90;0.90;;;-1.20;99.90;;;;;;5060810;28;20195;-87
2023/12/02 09:40:25;;;;;;;0.90;0.90;;;-1.30;99.90;;;;;;5060567;28;20175;-85
2023/12/02 09:43:06;;;;;;;0.90;0.90;;;-1.30;99.90;;;;;;5060532;28;20206;-82
2023/12/02 09:45:41;;;;;;;0.90;0.90;;;-1.40;99.90;;;;;;5053826;28;20195;-85
2023/12/02 09:48:28;;;;;;;0.80;0.80;;;-1.20;99.90;;;;;;5054532;28;20176;-84
2023/12/02 09:51:15;;;;;;;0.93;0.93;;;-1.20;99.90;;;;;;5050216;28;20172;-84
2023/12/02 09:54:19;;;;;;;0.90;0.90;;;-1.30;99.90;;;;;;5046476;28;20187;-85
2023/12/02 09:56:54;;;;;;;0.90;0.90;;;-1.30;99.90;;;;;;5044836;28;20282;-85
2023/12/02 09:59:39;;;;;;;0.90;0.90;;;-1.20;99.90;;;;;;5045472;28;20528;-82
2023/12/02 10:02:23;;;;;;;0.97;0.97;;;-1.30;99.90;;;;;;5049602;28;20191;-83
2023/12/02 10:05:21;;;;;;;0.83;0.83;;;-1.30;99.90;;;;;;5045206;28;20183;-85
2023/12/02 10:07:52;;;;;;;1.00;1.00;;;-1.30;99.90;;;;;;5050240;28;20175;-83
2023/12/02 10:10:25;;;;;;;1.00;1.00;;;-1.40;99.90;;;;;;5044817;28;20248;-84
2023/12/02 10:13:28;;;;;;;0.80;0.80;;;-1.30;99.90;;;;;;5051484;28;20199;-82
2023/12/02 10:15:57;;;;;;;0.90;0.90;;;-1.30;99.90;;;;;;5042925;28;20199;-82
2023/12/02 10:18:29;;;;;;;0.90;0.90;;;-1.30;99.90;;;;;;5047781;28;20280;-83
2023/12/02 10:21:00;;;;;;;0.90;0.90;;;-1.30;99.90;;;;;;5053468;28;20179;-82
2023/12/02 10:23:53;;;;;;;0.80;0.80;;;-1.40;99.90;;;;;;5046221;28;20183;-84
2023/12/02 10:26:52;;;;;;;0.90;0.90;;;-1.10;99.90;;;;;;5026766;28;20195;-85
2023/12/02 10:29:31;;;;;;;0.80;0.80;;;-1.30;99.90;;;;;;5010602;28;20200;-85
2023/12/02 10:32:20;;;;;;;0.90;0.90;;;-1.10;99.90;;;;;;5043340;28;20641;-85
2023/12/02 10:35:16;;;;;;;0.80;0.80;;;-1.20;99.90;;;;;;5022782;28;20264;-84
2023/12/02 10:37:42;;;;;;;0.80;0.80;;;-1.10;99.90;;;;;;5041782;28;20180;-84
2023/12/02 10:40:10;;;;;;;0.90;0.90;;;-1.00;99.90;;;;;;5024172;28;20626;-85
2023/12/02 10:42:39;;;;;;;0.90;0.90;;;-1.10;99.90;;;;;;5037049;28;20172;-84
2023/12/02 10:45:06;;;;;;;0.90;0.90;;;-1.10;99.90;;;;;;5035431;28;20180;-84
2023/12/02 10:47:32;;;;;;;0.80;0.80;;;-1.00;99.90;;;;;;5046619;28;20301;-84
2023/12/02 10:50:01;;;;;;;1.00;1.00;;;-1.10;99.90;;;;;;5048813;28;20275;-83
2023/12/02 10:52:30;;;;;;;0.93;0.93;;;-1.20;99.90;;;;;;5046727;28;20179;-85
2023/12/02 10:55:02;;;;;;;0.90;0.90;;;-0.90;99.90;;;;;;5054235;28;20184;-85
2023/12/02 10:57:28;;;;;;;0.90;0.90;;;-0.90;99.90;;;;;;5032238;28;20255;-86
2023/12/02 11:00:12;;;;;;;0.90;0.90;;;-1.10;99.90;;;;;;5046242;28;20661;-85
2023/12/02 11:02:46;;;;;;;1.00;1.00;;;-1.30;99.90;;;;;;5034293;28;20202;-86
2023/12/02 11:05:23;;;;;;;1.00;1.00;;;-1.30;99.90;;;;;;5036512;28;20207;-86
2023/12/02 11:07:53;;;;;;;0.90;0.90;;;-1.20;99.90;;;;;;5036387;28;20171;-84
2023/12/02 11:10:42;;;;;;;0.90;0.90;;;-0.90;99.90;;;;;;5057358;28;20215;-87
2023/12/02 11:13:14;;;;;;;0.93;0.93;;;-0.90;99.90;;;;;;5043257;28;20185;-84
2023/12/02 11:16:15;;;;;;;1.00;1.00;;;-1.10;99.90;;;;;;5036099;28;20196;-85
2023/12/02 11:19:13;;;;;;;0.90;0.90;;;-1.10;99.90;;;;;;5048019;28;20206;-86
2023/12/02 11:21:44;;;;;;;0.90;0.90;;;-1.10;99.90;;;;;;5033647;28;20183;-86
2023/12/02 11:24:23;;;;;;;0.83;0.83;;;-1.00;99.90;;;;;;5036077;28;20282;-86
2023/12/02 11:27:19;;;;;;;0.80;0.80;;;-1.20;99.90;;;;;;5046951;28;20203;-84
2023/12/02 11:29:53;;;;;;;1.00;1.00;;;-1.20;99.90;;;;;;5030655;28;20223;-86
2023/12/02 11:32:35;;;;;;;0.90;0.90;;;-1.20;99.90;;;;;;5017462;28;20172;-85
2023/12/02 11:35:13;;;;;;;1.00;1.00;;;-1.10;99.90;;;;;;5043521;28;20189;-87
2023/12/02 11:38:17;;;;;;;1.00;1.00;;;-0.90;99.90;;;;;;5050751;28;20194;-83
2023/12/02 11:41:03;;;;;;;0.90;0.90;;;-1.20;99.90;;;;;;5022507;28;20210;-88
2023/12/02 11:44:00;;;;;;;1.00;1.00;;;-1.20;99.90;;;;;;5026695;28;20238;-82
2023/12/02 11:46:33;;;;;;;0.90;0.90;;;-1.10;99.90;;;;;;5039844;28;20664;-83
2023/12/02 11:49:29;;;;;;;1.00;1.00;;;-1.20;99.90;;;;;;5042635;28;20212;-82
2023/12/02 11:52:22;;;;;;;0.90;0.90;;;-0.80;99.90;;;;;;5041883;28;20263;-82
2023/12/02 11:55:05;;;;;;;0.90;0.90;;;-0.80;99.90;;;;;;5036602;28;20172;-84
2023/12/02 11:57:49;;;;;;;0.97;0.97;;;-1.10;99.90;;;;;;5042943;28;20545;-86
2023/12/02 12:00:37;;;;;;;0.90;0.90;;;-1.30;99.90;;;;;;5030149;28;20629;-84
2023/12/02 12:03:17;;;;;;;0.80;0.80;;;-1.00;99.90;;;;;;5039792;28;20167;-85
2023/12/02 12:06:04;;;;;;;0.90;0.90;;;-1.20;99.90;;;;;;5057129;28;20815;-86
2023/12/02 12:08:39;;;;;;;0.90;0.90;;;-0.90;99.90;;;;;;5057605;28;20673;-84
2023/12/02 12:11:11;;;;;;;0.90;0.90;;;-1.10;99.90;;;;;;5057917;28;20174;-85
2023/12/02 12:13:37;;;;;;;0.90;0.90;;;-0.90;99.90;;;;;;5049475;28;20553;-86
2023/12/02 12:16:03;;;;;;;0.90;0.90;;;-0.90;99.90;;;;;;5044286;28;20203;-85
2023/12/02 12:18:28;;;;;;;0.90;0.90;;;-0.80;99.90;;;;;;5018031;28;20665;-88
2023/12/02 12:20:55;;;;;;;1.00;1.00;;;-0.60;99.90;;;;;;5020701;28;20176;-86
2023/12/02 12:23:28;;;;;;;0.90;0.90;;;-0.90;99.90;;;;;;5038091;28;20175;-85
2023/12/02 12:25:53;;;;;;;0.80;0.80;;;-1.10;99.90;;;;;;5046298;28;20647;-87
2023/12/02 12:28:19;;;;;;;0.90;0.90;;;-0.90;99.90;;;;;;5048317;28;20179;-86
2023/12/02 12:30:46;;;;;;;0.90;0.90;;;-1.10;99.90;;;;;;5045168;28;20171;-86
2023/12/02 12:33:20;;;;;;;0.93;0.93;;;-1.00;99.90;;;;;;5042648;28;20179;-85
2023/12/02 12:35:48;;;;;;;0.97;0.97;;;-1.10;99.90;;;;;;5020166;28;20255;-86
2023/12/02 12:38:14;;;;;;;0.90;0.90;;;-1.20;99.90;;;;;;5021573;28;20188;-86
2023/12/02 12:40:43;;;;;;;0.80;0.80;;;-1.10;99.90;;;;;;5038327;28;20203;-86
2023/12/02 12:43:11;;;;;;;1.00;1.00;;;-1.00;99.90;;;;;;5041464;28;20212;-86
2023/12/02 12:45:40;;;;;;;0.90;0.90;;;-1.00;99.90;;;;;;5040323;28;20263;-86
2023/12/02 12:48:07;;;;;;;1.00;1.00;;;-1.00;99.90;;;;;;5022669;28;20176;-85
2023/12/02 12:50:35;;;;;;;0.90;0.90;;;-1.10;99.90;;;;;;5040586;28;20234;-86
2023/12/02 12:53:29;;;;;;;0.93;0.93;;;-1.10;99.90;;;;;;5038394;28;20199;-86
2023/12/02 12:56:10;;;;;;;0.87;0.87;;;-0.90;99.90;;;;;;5036389;28;20201;-85
2023/12/02 12:58:58;;;;;;;1.00;1.00;;;-0.90;92.30;;;;;;5050208;28;20176;-85
2023/12/02 13:01:27;;;;;;;0.90;0.90;;;-0.90;99.90;;;;;;5033700;28;20164;-83